Welcome to Des Moines Iowa Weather. I am an independent private personal weather station on the Northwest Side of Des Moines, Iowa. Just East of Windsor Heights and just West of Glendale . This site is also mobile friendly.

There are no active watches, warnings or advisories


Visit our other weather sites:

Historical Data

Weather Station Setup



Weather Underground History page Text

Daily Summary for March 14, 2017 Units:  English    Metric   Both
« Previous Day
Next Day »
Daily Weekly Monthly Yearly Custom
  High: Low: Average:
Temperature: 28.7 °F 12.1 °F 20.3 °F
Dew Point: 16.0 °F 8.0 °F 11.6 °F
Humidity: 86 % 50 % 70 %
Wind Speed: 5.0 mph 0.0 mph 1.2 mph
Wind Gust: 12.0 mph - -
Wind:- - East
Pressure: 30.55 in 30.32 in -
Precipitation: 0.00 in    
Historical Graphs
 
 
Tabular Data for March 14, 2017
Time Temperature Dew Point Pressure Wind Wind Speed Wind Gust Humidity Rainfall Rate (Hourly)
00:00 21.0 °F 15.2 °F 30.35 in North 2.0 mph 6.0 mph 78 % 0.00 in
00:04 20.4 °F 15.0 °F 30.41 in NNE 1.0 mph 7.0 mph 78 % 0.00 in
00:05 20.7 °F 14.6 °F 30.35 in NNE 2.0 mph 9.0 mph 77 % 0.00 in
00:10 20.7 °F 14.6 °F 30.35 in NNE 2.0 mph 9.0 mph 77 % 0.00 in
00:15 20.3 °F 14.3 °F 30.34 in NE 2.0 mph 8.0 mph 77 % 0.00 in
00:19 19.9 °F 14.0 °F 30.41 in Calm   8.0 mph 78 % 0.00 in
00:20 20.3 °F 14.3 °F 30.34 in NE 2.0 mph 8.0 mph 77 % 0.00 in
00:25 20.3 °F 14.3 °F 30.34 in NE 2.0 mph 8.0 mph 77 % 0.00 in
00:30 19.8 °F 13.8 °F 30.34 in NNE 2.0 mph 8.0 mph 77 % 0.00 in
00:34 19.2 °F 13.0 °F 30.41 in NNE 2.0 mph 8.0 mph 78 % 0.00 in
00:35 19.8 °F 13.8 °F 30.34 in NNE 2.0 mph 8.0 mph 77 % 0.00 in
00:40 19.8 °F 13.8 °F 30.34 in NNE 2.0 mph 8.0 mph 77 % 0.00 in
00:45 19.1 °F 13.1 °F 30.34 in NNE 2.0 mph 8.0 mph 77 % 0.00 in
00:49 18.7 °F 13.0 °F 30.40 in Calm   6.0 mph 78 % 0.00 in
00:50 19.1 °F 13.1 °F 30.34 in NNE 2.0 mph 8.0 mph 77 % 0.00 in
00:55 19.1 °F 13.1 °F 30.34 in NNE 2.0 mph 8.0 mph 77 % 0.00 in
01:00 18.6 °F 12.6 °F 30.34 in NE 2.0 mph 5.0 mph 77 % 0.00 in
01:05 18.1 °F 12.0 °F 30.40 in Calm   5.0 mph 78 % 0.00 in
01:10 18.6 °F 12.6 °F 30.34 in NE 2.0 mph 5.0 mph 77 % 0.00 in
01:15 18.6 °F 12.6 °F 30.34 in NE 2.0 mph 5.0 mph 77 % 0.00 in
01:20 17.6 °F 12.0 °F 30.40 in Calm   5.0 mph 79 % 0.00 in
01:25 18.0 °F 12.3 °F 30.34 in NNW 1.0 mph 4.0 mph 78 % 0.00 in
01:30 18.0 °F 12.3 °F 30.34 in NNW 1.0 mph 4.0 mph 78 % 0.00 in
01:35 17.2 °F 12.0 °F 30.40 in NE 1.0 mph 5.0 mph 79 % 0.00 in
01:40 17.6 °F 11.9 °F 30.34 in NNE 2.0 mph 6.0 mph 78 % 0.00 in
01:45 17.6 °F 11.9 °F 30.34 in NNE 2.0 mph 6.0 mph 78 % 0.00 in
01:50 16.9 °F 11.0 °F 30.40 in NE 2.0 mph 4.0 mph 79 % 0.00 in
01:55 17.2 °F 11.5 °F 30.33 in NNE 1.0 mph 4.0 mph 78 % 0.00 in
02:00 16.8 °F 11.4 °F 30.34 in NNE 1.0 mph 4.0 mph 79 % 0.00 in
02:05 16.5 °F 11.0 °F 30.41 in NW 2.0 mph 6.0 mph 80 % 0.00 in
02:10 16.8 °F 11.4 °F 30.34 in NNE 1.0 mph 4.0 mph 79 % 0.00 in
02:15 16.4 °F 11.1 °F 30.34 in NNW 1.0 mph 4.0 mph 79 % 0.00 in
02:20 16.2 °F 11.0 °F 30.41 in Calm   5.0 mph 80 % 0.00 in
02:25 16.4 °F 11.1 °F 30.34 in NNW 1.0 mph 4.0 mph 79 % 0.00 in
02:30 16.1 °F 10.8 °F 30.34 in NNE 1.0 mph 5.0 mph 79 % 0.00 in
02:35 15.8 °F 11.0 °F 30.41 in Calm   5.0 mph 81 % 0.00 in
02:40 16.1 °F 10.8 °F 30.34 in NNE 1.0 mph 5.0 mph 79 % 0.00 in
02:45 16.1 °F 10.8 °F 30.34 in NNE 1.0 mph 5.0 mph 79 % 0.00 in
02:50 15.5 °F 11.0 °F 30.41 in Calm   4.0 mph 81 % 0.00 in
02:55 15.8 °F 10.7 °F 30.34 in North 1.0 mph 3.0 mph 80 % 0.00 in
03:00 15.8 °F 10.7 °F 30.34 in North 1.0 mph 3.0 mph 80 % 0.00 in
03:05 15.1 °F 11.0 °F 30.41 in Calm   3.0 mph 82 % 0.00 in
03:10 15.4 °F 10.4 °F 30.34 in Calm   3.0 mph 80 % 0.00 in
03:15 15.4 °F 10.4 °F 30.34 in Calm   3.0 mph 80 % 0.00 in
03:20 14.7 °F 10.0 °F 30.41 in Calm   3.0 mph 82 % 0.00 in
03:25 15.0 °F 10.2 °F 30.34 in Calm   3.0 mph 81 % 0.00 in
03:30 15.0 °F 10.2 °F 30.34 in Calm   3.0 mph 81 % 0.00 in
03:35 14.5 °F 10.0 °F 30.40 in North 1.0 mph 3.0 mph 83 % 0.00 in
03:40 14.7 °F 10.2 °F 30.33 in North 1.0 mph 3.0 mph 82 % 0.00 in
03:45 14.7 °F 10.2 °F 30.33 in North 1.0 mph 3.0 mph 82 % 0.00 in
03:50 14.4 °F 10.0 °F 30.40 in Calm   5.0 mph 83 % 0.00 in
03:55 14.5 °F 10.0 °F 30.33 in North 1.0 mph 3.0 mph 82 % 0.00 in
04:00 14.5 °F 10.0 °F 30.33 in North 1.0 mph 3.0 mph 82 % 0.00 in
04:05 14.2 °F 10.0 °F 30.40 in Calm   2.0 mph 83 % 0.00 in
04:10 14.3 °F 9.8 °F 30.33 in NNE 1.0 mph 5.0 mph 82 % 0.00 in
04:15 14.3 °F 9.8 °F 30.33 in NNE 1.0 mph 5.0 mph 82 % 0.00 in
04:20 13.9 °F 10.0 °F 30.39 in Calm   3.0 mph 83 % 0.00 in
04:25 14.1 °F 9.6 °F 30.33 in Calm   3.0 mph 82 % 0.00 in
04:30 14.1 °F 9.6 °F 30.33 in Calm   3.0 mph 82 % 0.00 in
04:35 13.6 °F 9.0 °F 30.39 in NE 1.0 mph 2.0 mph 83 % 0.00 in
04:40 13.8 °F 9.3 °F 30.32 in Calm   2.0 mph 82 % 0.00 in
04:45 13.5 °F 9.1 °F 30.33 in Calm   2.0 mph 82 % 0.00 in
04:50 13.3 °F 9.0 °F 30.40 in Calm   2.0 mph 83 % 0.00 in
04:55 13.5 °F 9.1 °F 30.33 in Calm   2.0 mph 82 % 0.00 in
05:00 13.2 °F 8.8 °F 30.33 in Calm   2.0 mph 82 % 0.00 in
05:05 13.0 °F 9.0 °F 30.41 in Calm     83 % 0.00 in
05:10 13.2 °F 8.8 °F 30.33 in Calm   2.0 mph 82 % 0.00 in
05:15 12.9 °F 8.7 °F 30.34 in Calm   2.0 mph 83 % 0.00 in
05:20 12.7 °F 9.0 °F 30.41 in NE 1.0 mph 2.0 mph 84 % 0.00 in
05:25 12.9 °F 8.7 °F 30.34 in Calm   2.0 mph 83 % 0.00 in
05:30 12.7 °F 8.5 °F 30.35 in Calm   2.0 mph 83 % 0.00 in
05:35 12.6 °F 9.0 °F 30.42 in Calm   1.0 mph 85 % 0.00 in
05:40 12.7 °F 8.5 °F 30.35 in Calm   2.0 mph 83 % 0.00 in
05:45 12.6 °F 8.7 °F 30.35 in Calm   2.0 mph 84 % 0.00 in
05:50 12.6 °F 9.0 °F 30.43 in Calm   2.0 mph 85 % 0.00 in
05:55 12.6 °F 8.7 °F 30.35 in Calm   2.0 mph 84 % 0.00 in
06:00 12.6 °F 8.7 °F 30.36 in Calm   2.0 mph 84 % 0.00 in
06:05 12.6 °F 8.7 °F 30.36 in Calm   2.0 mph 84 % 0.00 in
06:06 12.6 °F 9.0 °F 30.43 in Calm   2.0 mph 85 % 0.00 in
06:10 12.6 °F 8.7 °F 30.36 in Calm   2.0 mph 84 % 0.00 in
06:15 12.6 °F 8.7 °F 30.36 in Calm   2.0 mph 84 % 0.00 in
06:20 12.7 °F 9.0 °F 30.43 in NE 1.0 mph 3.0 mph 85 % 0.00 in
06:25 12.7 °F 8.8 °F 30.36 in Calm   3.0 mph 84 % 0.00 in
06:30 12.7 °F 8.8 °F 30.36 in Calm   3.0 mph 84 % 0.00 in
06:35 12.7 °F 9.0 °F 30.43 in Calm   2.0 mph 85 % 0.00 in
06:40 12.7 °F 8.8 °F 30.36 in Calm   3.0 mph 84 % 0.00 in
06:45 12.7 °F 8.8 °F 30.36 in Calm   3.0 mph 84 % 0.00 in
06:50 12.4 °F 9.0 °F 30.44 in Calm   3.0 mph 85 % 0.00 in
06:55 12.6 °F 8.7 °F 30.36 in Calm   3.0 mph 84 % 0.00 in
07:00 12.6 °F 8.7 °F 30.36 in Calm   3.0 mph 84 % 0.00 in
07:05 12.2 °F 9.0 °F 30.44 in Calm   2.0 mph 85 % 0.00 in
07:10 12.4 °F 8.5 °F 30.36 in Calm   2.0 mph 84 % 0.00 in
07:15 12.4 °F 8.5 °F 30.36 in Calm   2.0 mph 84 % 0.00 in
07:20 12.1 °F 9.0 °F 30.44 in Calm   2.0 mph 85 % 0.00 in
07:25 12.2 °F 8.3 °F 30.37 in Calm   2.0 mph 84 % 0.00 in
07:30 12.2 °F 8.3 °F 30.37 in Calm   2.0 mph 84 % 0.00 in
07:35 12.1 °F 9.0 °F 30.45 in Calm   2.0 mph 86 % 0.00 in
07:40 12.1 °F 8.2 °F 30.37 in Calm   3.0 mph 84 % 0.00 in
07:45 12.1 °F 8.2 °F 30.37 in Calm   3.0 mph 84 % 0.00 in
07:50 12.1 °F 8.5 °F 30.38 in Calm   2.0 mph 85 % 0.00 in
07:51 12.1 °F 9.0 °F 30.46 in Calm   1.0 mph 86 % 0.00 in
07:55 12.1 °F 8.5 °F 30.38 in Calm   2.0 mph 85 % 0.00 in
08:00 12.1 °F 8.5 °F 30.38 in Calm   2.0 mph 85 % 0.00 in
08:05 12.2 °F 8.6 °F 30.39 in Calm   3.0 mph 85 % 0.00 in
08:06 12.6 °F 9.0 °F 30.46 in NE 2.0 mph 3.0 mph 86 % 0.00 in
08:10 12.2 °F 8.6 °F 30.39 in Calm   3.0 mph 85 % 0.00 in
08:15 12.2 °F 8.6 °F 30.39 in Calm   3.0 mph 85 % 0.00 in
08:20 12.7 °F 9.1 °F 30.39 in Calm   3.0 mph 85 % 0.00 in
08:21 13.3 °F 10.0 °F 30.46 in NE 1.0 mph 3.0 mph 86 % 0.00 in
08:25 12.7 °F 9.1 °F 30.39 in Calm   3.0 mph 85 % 0.00 in
08:30 12.7 °F 9.1 °F 30.39 in Calm   3.0 mph 85 % 0.00 in
08:35 13.4 °F 9.5 °F 30.39 in NE 1.0 mph 3.0 mph 84 % 0.00 in
08:36 14.2 °F 11.0 °F 30.47 in ENE 2.0 mph 4.0 mph 85 % 0.00 in
08:40 13.4 °F 9.5 °F 30.39 in NE 1.0 mph 3.0 mph 84 % 0.00 in
08:45 14.3 °F 10.1 °F 30.40 in ENE 1.0 mph 4.0 mph 83 % 0.00 in
08:50 14.3 °F 10.1 °F 30.40 in ENE 1.0 mph 4.0 mph 83 % 0.00 in
08:51 15.1 °F 11.0 °F 30.48 in Calm   3.0 mph 83 % 0.00 in
08:55 14.3 °F 10.1 °F 30.40 in ENE 1.0 mph 4.0 mph 83 % 0.00 in
09:00 15.1 °F 10.6 °F 30.40 in ENE 1.0 mph 4.0 mph 82 % 0.00 in
09:05 15.1 °F 10.6 °F 30.40 in ENE 1.0 mph 4.0 mph 82 % 0.00 in
09:06 15.9 °F 11.0 °F 30.48 in Calm   3.0 mph 82 % 0.00 in
09:10 15.1 °F 10.6 °F 30.40 in ENE 1.0 mph 4.0 mph 82 % 0.00 in
09:15 16.1 °F 11.0 °F 30.41 in ENE 1.0 mph 5.0 mph 80 % 0.00 in
09:20 16.1 °F 11.0 °F 30.41 in ENE 1.0 mph 5.0 mph 80 % 0.00 in
09:21 17.1 °F 12.0 °F 30.48 in ENE 3.0 mph 4.0 mph 81 % 0.00 in
09:25 16.1 °F 11.0 °F 30.41 in ENE 1.0 mph 5.0 mph 80 % 0.00 in
09:30 16.1 °F 11.0 °F 30.41 in ENE 1.0 mph 5.0 mph 80 % 0.00 in
09:35 17.3 °F 11.9 °F 30.41 in ENE 2.0 mph 4.0 mph 79 % 0.00 in
09:36 18.3 °F 13.0 °F 30.49 in Calm   6.0 mph 80 % 0.00 in
09:40 17.3 °F 11.9 °F 30.41 in ENE 2.0 mph 4.0 mph 79 % 0.00 in
09:45 17.3 °F 11.9 °F 30.41 in ENE 2.0 mph 4.0 mph 79 % 0.00 in
09:50 18.3 °F 12.6 °F 30.41 in ENE 2.0 mph 9.0 mph 78 % 0.00 in
09:51 19.0 °F 14.0 °F 30.49 in NE 1.0 mph 6.0 mph 79 % 0.00 in
09:55 18.3 °F 12.6 °F 30.41 in ENE 2.0 mph 9.0 mph 78 % 0.00 in
10:00 18.3 °F 12.6 °F 30.41 in ENE 2.0 mph 9.0 mph 78 % 0.00 in
10:05 19.0 °F 13.0 °F 30.42 in ENE 2.0 mph 6.0 mph 77 % 0.00 in
10:06 19.8 °F 14.0 °F 30.49 in Calm   6.0 mph 78 % 0.00 in
10:10 19.0 °F 13.0 °F 30.42 in ENE 2.0 mph 6.0 mph 77 % 0.00 in
10:15 19.0 °F 13.0 °F 30.42 in ENE 2.0 mph 6.0 mph 77 % 0.00 in
10:20 21.2 °F 14.2 °F 30.42 in East 2.0 mph 3.0 mph 74 % 0.00 in
10:21 21.2 °F 14.0 °F 30.50 in East 2.0 mph 6.0 mph 75 % 0.00 in
10:31 21.4 °F 14.4 °F 30.42 in East 1.0 mph 3.0 mph 74 % 0.00 in
10:36 22.4 °F 15.1 °F 30.42 in Calm   3.0 mph 73 % 0.00 in
10:41 22.8 °F 15.1 °F 30.42 in Calm   3.0 mph 72 % 0.00 in
10:46 23.0 °F 15.0 °F 30.42 in ESE 3.0 mph 4.0 mph 71 % 0.00 in
10:51 22.8 °F 14.5 °F 30.42 in East 1.0 mph 3.0 mph 70 % 0.00 in
10:56 23.0 °F 15.0 °F 30.43 in NE 1.0 mph 4.0 mph 71 % 0.00 in
11:00 18.3 °F 12.6 °F 30.41 in ENE 2.0 mph 9.0 mph 78 % 0.00 in
11:05 19.0 °F 13.0 °F 30.42 in ENE 2.0 mph 6.0 mph 77 % 0.00 in
11:06 23.2 °F 15.0 °F 30.51 in East 3.0 mph 6.0 mph 72 % 0.00 in
11:10 19.0 °F 13.0 °F 30.42 in ENE 2.0 mph 6.0 mph 77 % 0.00 in
11:15 22.9 °F 14.3 °F 30.43 in ENE 2.0 mph 6.0 mph 69 % 0.00 in
11:20 21.2 °F 14.2 °F 30.42 in East 2.0 mph 2.0 mph 74 % 0.00 in
11:21 24.2 °F 16.0 °F 30.52 in Calm   4.0 mph 70 % 0.00 in
11:25 21.3 °F 14.3 °F 30.42 in East 1.0 mph 3.0 mph 74 % 0.00 in
11:30 21.5 °F 14.2 °F 30.42 in East 1.0 mph 4.0 mph 73 % 0.00 in
11:35 22.1 °F 14.8 °F 30.42 in NE 2.0 mph 4.0 mph 73 % 0.00 in
11:36 25.4 °F 16.0 °F 30.52 in East 3.0 mph 5.0 mph 68 % 0.00 in
11:40 22.6 °F 14.9 °F 30.42 in NE 2.0 mph 4.0 mph 72 % 0.00 in
11:45 23.0 °F 15.0 °F 30.42 in East 2.0 mph 2.0 mph 71 % 0.00 in
11:50 22.9 °F 14.6 °F 30.42 in East 2.0 mph 4.0 mph 70 % 0.00 in
11:51 25.8 °F 16.0 °F 30.52 in ENE 2.0 mph 6.0 mph 66 % 0.00 in
11:55 22.8 °F 14.8 °F 30.43 in East 2.0 mph 3.0 mph 71 % 0.00 in
12:00 23.1 °F 14.8 °F 30.43 in ENE 2.0 mph 5.0 mph 70 % 0.00 in
12:05 23.1 °F 14.8 °F 30.43 in ENE 2.0 mph 5.0 mph 70 % 0.00 in
12:06 25.4 °F 16.0 °F 30.52 in ENE 1.0 mph 9.0 mph 67 % 0.00 in
12:10 23.1 °F 14.8 °F 30.43 in ENE 2.0 mph 5.0 mph 70 % 0.00 in
12:15 25.4 °F 15.7 °F 30.44 in ENE 2.0 mph 9.0 mph 66 % 0.00 in
12:20 25.4 °F 15.7 °F 30.44 in ENE 2.0 mph 9.0 mph 66 % 0.00 in
12:21 25.4 °F 16.0 °F 30.52 in ENE 3.0 mph 8.0 mph 67 % 0.00 in
12:25 25.4 °F 15.7 °F 30.44 in ENE 2.0 mph 9.0 mph 66 % 0.00 in
12:30 25.3 °F 15.6 °F 30.44 in ENE 2.0 mph 6.0 mph 66 % 0.00 in
12:35 25.3 °F 15.6 °F 30.44 in ENE 2.0 mph 6.0 mph 66 % 0.00 in
12:36 25.6 °F 16.0 °F 30.52 in ENE 2.0 mph 5.0 mph 67 % 0.01 in
12:40 25.3 °F 15.6 °F 30.44 in ENE 2.0 mph 6.0 mph 66 % 0.00 in
12:45 25.2 °F 15.5 °F 30.44 in ENE 3.0 mph 8.0 mph 66 % 0.00 in
12:50 25.2 °F 15.5 °F 30.44 in ENE 3.0 mph 8.0 mph 66 % 0.00 in
12:51 26.4 °F 16.0 °F 30.52 in NE 2.0 mph 4.0 mph 66 % 0.02 in
12:55 25.2 °F 15.5 °F 30.44 in ENE 3.0 mph 8.0 mph 66 % 0.00 in
13:00 25.3 °F 15.6 °F 30.44 in ENE 2.0 mph 7.0 mph 66 % 0.00 in
13:05 25.3 °F 15.6 °F 30.44 in ENE 2.0 mph 7.0 mph 66 % 0.00 in
13:06 26.0 °F 15.0 °F 30.52 in ENE 3.0 mph 10.0 mph 63 % 0.02 in
13:10 25.3 °F 15.6 °F 30.44 in ENE 2.0 mph 7.0 mph 66 % 0.00 in
13:15 26.3 °F 15.4 °F 30.44 in NE 2.0 mph 7.0 mph 63 % 0.04 in
13:20 26.3 °F 15.4 °F 30.44 in NE 2.0 mph 7.0 mph 63 % 0.04 in
13:21 25.8 °F 14.0 °F 30.52 in East 3.0 mph 6.0 mph 61 % 0.03 in
13:25 26.3 °F 15.4 °F 30.44 in NE 2.0 mph 7.0 mph 63 % 0.04 in
13:30 26.2 °F 15.0 °F 30.44 in ENE 3.0 mph 10.0 mph 62 % 0.04 in
13:35 26.2 °F 15.0 °F 30.44 in ENE 3.0 mph 10.0 mph 62 % 0.04 in
13:36 26.4 °F 13.0 °F 30.52 in East 3.0 mph 7.0 mph 58 % 0.03 in
13:40 26.2 °F 15.0 °F 30.44 in ENE 3.0 mph 10.0 mph 62 % 0.04 in
13:45 26.2 °F 13.1 °F 30.44 in ENE 2.0 mph 5.0 mph 57 % 0.00 in
13:50 26.2 °F 13.1 °F 30.44 in ENE 2.0 mph 5.0 mph 57 % 0.00 in
13:52 27.5 °F 14.0 °F 30.52 in East 1.0 mph 8.0 mph 58 % 0.02 in
13:55 26.2 °F 13.1 °F 30.44 in ENE 2.0 mph 5.0 mph 57 % 0.00 in
14:00 26.6 °F 14.2 °F 30.44 in ENE 2.0 mph 7.0 mph 59 % 0.00 in
14:05 26.6 °F 14.2 °F 30.44 in ENE 2.0 mph 7.0 mph 59 % 0.00 in
14:07 26.8 °F 13.0 °F 30.52 in ENE 2.0 mph 5.0 mph 57 % 0.03 in
14:10 26.6 °F 14.2 °F 30.44 in ENE 2.0 mph 7.0 mph 59 % 0.00 in
14:15 27.0 °F 13.0 °F 30.44 in East 2.0 mph 6.0 mph 55 % 0.00 in
14:20 27.0 °F 13.0 °F 30.44 in East 2.0 mph 6.0 mph 55 % 0.00 in
14:22 27.3 °F 12.0 °F 30.51 in Calm   6.0 mph 52 % 0.03 in
14:25 27.0 °F 13.0 °F 30.44 in East 2.0 mph 6.0 mph 55 % 0.00 in
14:30 26.9 °F 11.7 °F 30.43 in East 2.0 mph 6.0 mph 52 % 0.00 in
14:35 26.9 °F 11.7 °F 30.43 in East 2.0 mph 6.0 mph 52 % 0.00 in
14:37 27.7 °F 13.0 °F 30.50 in NNW 4.0 mph 6.0 mph 55 % 0.02 in
14:40 26.9 °F 11.7 °F 30.43 in East 2.0 mph 6.0 mph 52 % 0.00 in
14:45 27.1 °F 12.7 °F 30.43 in ENE 3.0 mph 8.0 mph 54 % 0.00 in
14:50 27.1 °F 12.7 °F 30.43 in ENE 3.0 mph 8.0 mph 54 % 0.00 in
14:52 27.4 °F 12.0 °F 30.50 in Calm   10.0 mph 53 % 0.03 in
14:55 27.1 °F 12.7 °F 30.43 in ENE 3.0 mph 8.0 mph 54 % 0.00 in
15:00 27.6 °F 12.7 °F 30.43 in NE 2.0 mph 8.0 mph 53 % 0.00 in
15:05 27.6 °F 12.7 °F 30.43 in NE 2.0 mph 8.0 mph 53 % 0.00 in
15:07 28.6 °F 15.0 °F 30.50 in NNE 5.0 mph 12.0 mph 56 % 0.03 in
15:10 27.6 °F 12.7 °F 30.43 in NE 2.0 mph 8.0 mph 53 % 0.00 in
15:15 27.8 °F 13.8 °F 30.42 in NNE 3.0 mph 9.0 mph 55 % 0.00 in
15:20 27.8 °F 13.8 °F 30.42 in NNE 3.0 mph 9.0 mph 55 % 0.00 in
15:22 27.0 °F 12.0 °F 30.50 in Calm   6.0 mph 53 % 0.02 in
15:25 27.8 °F 13.8 °F 30.42 in NNE 3.0 mph 9.0 mph 55 % 0.00 in
15:30 28.7 °F 13.3 °F 30.42 in NE 3.0 mph 10.0 mph 52 % 0.04 in
15:35 28.7 °F 13.3 °F 30.42 in NE 3.0 mph 10.0 mph 52 % 0.04 in
15:37 28.0 °F 13.0 °F 30.50 in NE 3.0 mph 10.0 mph 54 % 0.03 in
15:40 28.7 °F 13.3 °F 30.42 in NE 3.0 mph 10.0 mph 52 % 0.04 in
15:45 27.3 °F 12.4 °F 30.42 in NE 2.0 mph 6.0 mph 53 % 0.00 in
15:50 27.3 °F 12.4 °F 30.42 in NE 2.0 mph 6.0 mph 53 % 0.00 in
15:52 26.3 °F 11.0 °F 30.50 in NNW 3.0 mph 9.0 mph 52 % 0.02 in
15:55 27.3 °F 12.4 °F 30.42 in NE 2.0 mph 6.0 mph 53 % 0.00 in
16:00 27.6 °F 11.9 °F 30.42 in NE 3.0 mph 8.0 mph 51 % 0.00 in
16:05 27.6 °F 11.9 °F 30.42 in NE 3.0 mph 8.0 mph 51 % 0.00 in
16:07 26.8 °F 12.0 °F 30.50 in North 3.0 mph 8.0 mph 54 % 0.01 in
16:10 27.6 °F 11.9 °F 30.42 in NE 3.0 mph 8.0 mph 51 % 0.00 in
16:15 26.5 °F 10.9 °F 30.42 in NW 3.0 mph 10.0 mph 51 % 0.00 in
16:20 26.5 °F 10.9 °F 30.42 in NW 3.0 mph 10.0 mph 51 % 0.00 in
16:22 26.9 °F 12.0 °F 30.50 in ENE 5.0 mph 8.0 mph 53 % 0.01 in
16:25 26.5 °F 10.9 °F 30.42 in NW 3.0 mph 10.0 mph 51 % 0.00 in
16:30 26.8 °F 10.7 °F 30.42 in WNW 2.0 mph 9.0 mph 50 % 0.00 in
16:35 26.8 °F 10.7 °F 30.42 in WNW 2.0 mph 9.0 mph 50 % 0.00 in
16:37 26.2 °F 12.0 °F 30.50 in NNE 2.0 mph 8.0 mph 55 % 0.00 in
16:40 26.8 °F 10.7 °F 30.42 in WNW 2.0 mph 9.0 mph 50 % 0.00 in
16:45 26.7 °F 11.5 °F 30.42 in ENE 2.0 mph 8.0 mph 52 % 0.00 in
16:50 26.7 °F 11.5 °F 30.42 in ENE 2.0 mph 8.0 mph 52 % 0.00 in
16:52 26.1 °F 11.0 °F 30.50 in NW 3.0 mph 10.0 mph 54 % 0.00 in
16:55 26.7 °F 11.5 °F 30.42 in ENE 2.0 mph 8.0 mph 52 % 0.00 in
17:00 26.1 °F 11.8 °F 30.43 in ENE 3.0 mph 8.0 mph 54 % 0.00 in
17:05 26.1 °F 11.8 °F 30.43 in ENE 3.0 mph 8.0 mph 54 % 0.00 in
17:07 26.3 °F 12.0 °F 30.50 in ENE 3.0 mph 10.0 mph 54 % 0.00 in
17:10 26.1 °F 11.8 °F 30.43 in ENE 3.0 mph 8.0 mph 54 % 0.00 in
17:15 26.1 °F 11.3 °F 30.42 in NE 2.0 mph 7.0 mph 53 % 0.00 in
17:20 26.1 °F 11.3 °F 30.42 in NE 2.0 mph 7.0 mph 53 % 0.00 in
17:22 26.5 °F 12.0 °F 30.50 in Calm   8.0 mph 54 % 0.00 in
17:25 26.1 °F 11.3 °F 30.42 in NE 2.0 mph 7.0 mph 53 % 0.00 in
17:30 26.3 °F 12.4 °F 30.42 in NNW 2.0 mph 8.0 mph 55 % 0.00 in
17:35 26.3 °F 12.4 °F 30.42 in NNW 2.0 mph 8.0 mph 55 % 0.00 in
17:37 26.2 °F 12.0 °F 30.50 in East 3.0 mph 8.0 mph 55 % 0.01 in
17:40 26.3 °F 12.4 °F 30.42 in NNW 2.0 mph 8.0 mph 55 % 0.00 in
17:45 26.6 °F 11.4 °F 30.42 in ENE 2.0 mph 8.0 mph 52 % 0.00 in
17:50 26.6 °F 11.4 °F 30.42 in ENE 2.0 mph 8.0 mph 52 % 0.00 in
17:52 25.6 °F 12.0 °F 30.50 in ENE 1.0 mph 9.0 mph 57 % 0.01 in
17:55 26.6 °F 11.4 °F 30.42 in ENE 2.0 mph 8.0 mph 52 % 0.00 in
18:00 26.1 °F 11.8 °F 30.42 in ENE 2.0 mph 7.0 mph 54 % 0.00 in
18:05 26.1 °F 11.8 °F 30.42 in ENE 2.0 mph 7.0 mph 54 % 0.00 in
18:07 25.1 °F 11.0 °F 30.51 in NE 5.0 mph 8.0 mph 56 % 0.01 in
18:10 26.1 °F 11.8 °F 30.42 in ENE 2.0 mph 7.0 mph 54 % 0.00 in
18:15 25.6 °F 12.1 °F 30.43 in NE 3.0 mph 9.0 mph 56 % 0.00 in
18:20 25.6 °F 12.1 °F 30.43 in NE 3.0 mph 9.0 mph 56 % 0.00 in
18:22 24.6 °F 11.0 °F 30.52 in Calm   5.0 mph 56 % 0.01 in
18:25 25.6 °F 12.1 °F 30.43 in NE 3.0 mph 9.0 mph 56 % 0.00 in
18:30 25.1 °F 11.2 °F 30.43 in NNE 2.0 mph 8.0 mph 55 % 0.00 in
18:35 25.1 °F 11.2 °F 30.43 in NNE 2.0 mph 8.0 mph 55 % 0.00 in
18:37 24.1 °F 11.0 °F 30.52 in Calm   10.0 mph 58 % 0.00 in
18:40 25.1 °F 11.2 °F 30.43 in NNE 2.0 mph 8.0 mph 55 % 0.00 in
18:45 24.6 °F 11.2 °F 30.44 in NNW 2.0 mph 5.0 mph 56 % 0.00 in
18:50 24.6 °F 11.2 °F 30.44 in NNW 2.0 mph 5.0 mph 56 % 0.00 in
18:52 23.8 °F 11.0 °F 30.52 in North 2.0 mph 8.0 mph 59 % 0.00 in
18:55 24.6 °F 11.2 °F 30.44 in NNW 2.0 mph 5.0 mph 56 % 0.00 in
19:00 24.2 °F 11.6 °F 30.44 in ENE 2.0 mph 7.0 mph 58 % 0.00 in
19:05 24.2 °F 11.6 °F 30.44 in ENE 2.0 mph 7.0 mph 58 % 0.00 in
19:07 23.4 °F 12.0 °F 30.52 in Calm   6.0 mph 61 % 0.00 in
19:10 24.2 °F 11.6 °F 30.44 in ENE 2.0 mph 7.0 mph 58 % 0.00 in
19:15 23.8 °F 11.6 °F 30.44 in NE 2.0 mph 6.0 mph 59 % 0.00 in
19:20 23.8 °F 11.6 °F 30.44 in NE 2.0 mph 6.0 mph 59 % 0.00 in
19:22 23.1 °F 11.0 °F 30.52 in East 3.0 mph 8.0 mph 61 % 0.00 in
19:25 23.8 °F 11.6 °F 30.44 in NE 2.0 mph 6.0 mph 59 % 0.00 in
19:30 23.4 °F 11.6 °F 30.44 in NNE 1.0 mph 5.0 mph 60 % 0.00 in
19:35 23.4 °F 11.6 °F 30.44 in NNE 1.0 mph 5.0 mph 60 % 0.00 in
19:37 22.7 °F 12.0 °F 30.53 in Calm   7.0 mph 63 % 0.00 in
19:40 23.4 °F 11.6 °F 30.44 in NNE 1.0 mph 5.0 mph 60 % 0.00 in
19:45 23.1 °F 11.7 °F 30.45 in ENE 1.0 mph 6.0 mph 61 % 0.00 in
19:50 23.1 °F 11.7 °F 30.45 in ENE 1.0 mph 6.0 mph 61 % 0.00 in
19:53 22.3 °F 12.0 °F 30.53 in Calm   4.0 mph 64 % 0.00 in
19:55 23.1 °F 11.7 °F 30.45 in ENE 1.0 mph 6.0 mph 61 % 0.00 in
20:00 22.7 °F 11.7 °F 30.45 in NE 1.0 mph 4.0 mph 62 % 0.00 in
20:05 22.7 °F 11.7 °F 30.45 in NE 1.0 mph 4.0 mph 62 % 0.00 in
20:10 22.7 °F 11.7 °F 30.45 in NE 1.0 mph 4.0 mph 62 % 0.00 in
20:15 22.3 °F 11.6 °F 30.45 in Calm   3.0 mph 63 % 0.00 in
20:20 22.3 °F 11.6 °F 30.45 in Calm   3.0 mph 63 % 0.00 in
20:25 22.3 °F 11.6 °F 30.45 in Calm   3.0 mph 63 % 0.00 in
20:30 21.9 °F 11.6 °F 30.45 in Calm   4.0 mph 64 % 0.00 in
20:35 21.9 °F 11.6 °F 30.45 in Calm   4.0 mph 64 % 0.00 in
20:40 21.9 °F 11.6 °F 30.45 in Calm   4.0 mph 64 % 0.00 in
20:45 21.4 °F 11.5 °F 30.46 in Calm   3.0 mph 65 % 0.00 in
20:50 21.4 °F 11.5 °F 30.46 in Calm   3.0 mph 65 % 0.00 in
20:55 21.4 °F 11.5 °F 30.46 in Calm   3.0 mph 65 % 0.00 in
21:00 20.9 °F 11.4 °F 30.46 in Calm   2.0 mph 66 % 0.00 in
21:05 20.9 °F 11.4 °F 30.46 in Calm   2.0 mph 66 % 0.00 in
21:10 20.9 °F 11.4 °F 30.46 in Calm   2.0 mph 66 % 0.00 in
21:15 20.5 °F 11.0 °F 30.46 in Calm   2.0 mph 66 % 0.00 in
21:20 20.5 °F 11.0 °F 30.46 in Calm   2.0 mph 66 % 0.00 in
21:22 19.6 °F 11.0 °F 30.54 in NE 2.0 mph 3.0 mph 68 % 0.00 in
21:25 20.5 °F 11.0 °F 30.46 in Calm   2.0 mph 66 % 0.00 in
21:30 20.1 °F 10.9 °F 30.46 in Calm   3.0 mph 67 % 0.00 in
21:35 20.1 °F 10.9 °F 30.46 in Calm   3.0 mph 67 % 0.00 in
21:38 19.3 °F 10.0 °F 30.54 in Calm   2.0 mph 68 % 0.00 in
21:40 20.1 °F 10.9 °F 30.46 in Calm   3.0 mph 67 % 0.00 in
21:45 19.7 °F 10.5 °F 30.46 in Calm   3.0 mph 67 % 0.00 in
21:50 19.7 °F 10.5 °F 30.46 in Calm   3.0 mph 67 % 0.00 in
21:53 18.9 °F 10.0 °F 30.55 in Calm   3.0 mph 68 % 0.00 in
21:55 19.7 °F 10.5 °F 30.46 in Calm   3.0 mph 67 % 0.00 in
22:00 19.3 °F 10.2 °F 30.46 in Calm   3.0 mph 67 % 0.00 in
22:05 19.3 °F 10.2 °F 30.46 in Calm   3.0 mph 67 % 0.00 in
22:08 18.5 °F 10.0 °F 30.55 in Calm   4.0 mph 68 % 0.00 in
22:10 19.3 °F 10.2 °F 30.46 in Calm   3.0 mph 67 % 0.00 in
22:15 18.9 °F 9.8 °F 30.46 in Calm   3.0 mph 67 % 0.00 in
22:20 18.9 °F 9.8 °F 30.46 in Calm   3.0 mph 67 % 0.00 in
22:24 18.1 °F 10.0 °F 30.55 in NE 1.0 mph 3.0 mph 69 % 0.00 in
22:25 18.9 °F 9.8 °F 30.46 in Calm   3.0 mph 67 % 0.00 in
22:30 18.6 °F 9.8 °F 30.46 in Calm   4.0 mph 68 % 0.00 in
22:35 18.6 °F 9.8 °F 30.46 in Calm   4.0 mph 68 % 0.00 in
22:38 17.8 °F 10.0 °F 30.55 in Calm   1.0 mph 70 % 0.00 in
22:40 18.6 °F 9.8 °F 30.46 in Calm   4.0 mph 68 % 0.00 in
22:45 18.2 °F 9.8 °F 30.47 in Calm   3.0 mph 69 % 0.00 in
22:50 18.2 °F 9.8 °F 30.47 in Calm   3.0 mph 69 % 0.00 in
22:53 17.4 °F 10.0 °F 30.55 in Calm   2.0 mph 71 % 0.00 in
22:55 18.2 °F 9.8 °F 30.47 in Calm   3.0 mph 69 % 0.00 in
23:00 17.8 °F 9.4 °F 30.47 in Calm   1.0 mph 69 % 0.00 in
23:05 17.8 °F 9.4 °F 30.47 in Calm   1.0 mph 69 % 0.00 in
23:08 17.0 °F 9.0 °F 30.54 in Calm     71 % 0.00 in
23:10 17.8 °F 9.4 °F 30.47 in Calm   1.0 mph 69 % 0.00 in
23:15 17.4 °F 9.3 °F 30.46 in Calm   2.0 mph 70 % 0.00 in
23:20 17.4 °F 9.3 °F 30.46 in Calm   2.0 mph 70 % 0.00 in
23:23 16.5 °F 9.0 °F 30.55 in Calm   1.0 mph 72 % 0.00 in
23:25 17.4 °F 9.3 °F 30.46 in Calm   2.0 mph 70 % 0.00 in
23:30 17.0 °F 8.9 °F 30.46 in Calm     70 % 0.00 in
23:35 17.0 °F 8.9 °F 30.46 in Calm     70 % 0.00 in
23:38 16.1 °F 9.0 °F 30.55 in Calm   1.0 mph 72 % 0.00 in
23:40 17.0 °F 8.9 °F 30.46 in Calm     70 % 0.00 in
23:45 16.6 °F 8.9 °F 30.47 in Calm   1.0 mph 71 % 0.00 in
23:50 16.6 °F 8.9 °F 30.47 in Calm   1.0 mph 71 % 0.00 in
23:53 15.6 °F 8.0 °F 30.55 in Calm     73 % 0.00 in
23:55 16.6 °F 8.9 °F 30.47 in Calm   1.0 mph 71 % 0.00 in
Des Moines Weather and Climate
Compliments of Weather Underground - 4.5 mb

Script developed by  Jim McMurry - jmcmurry@mwt.net Adapted for the template by  Wim van der Kuil - Leuven-Template.eu

You find our weather info also at:

Weather Underground

Equipment we use:

Weather-station
Davis VP2 Plus

Weather-program
Davis Weatherlink.Com

Weather-server
iMac (Retina 4K, 21.5-inch, Late 2015)

Provider
Hostmonster.com

Davis VP2 Plus

Davis Weatherlink.Com

iMac (Retina 4K, 21.5-inch, Late 2015)

Hostmonster.com